Divnogorsk, Russia
Current Conditions -  °F | °C
As of 4:00 PM on Tuesday 21 Oct 2014 (Local Time) from UNKL Reporting Station
Broken Clouds Broken Clouds  
Wind Chill: 52°   Ceiling: 8300
Heat Index: 52°   Visibility: 6mi
Dew Point: 36°   Wind: 18mph
Humidity: 54%   Direction: 250°WSW
Pressure: 29.5"   Gusts: 27mph
Location:  55.96°N, 92.36°E
Report Text: UNKL 210900Z 25008G12MPS 9999 SCT040CB BKN083 11/02 Q0999 TEMPO24018G23MPS RMK QFE724 29////55
Loading
Personal Weather Stations






























Interactive Weather Map
Tropical Storm Tracking
New forecast layout! Learn more

10-Day Weather Forecast

Advertisements
Track Severe Weather on mobile